Rexford, Kansas
Current Conditions -  °F | °C
As of 7:15 PM on Monday 20 Oct 2014 (Local Time) from KCBK Reporting Station
Clear Clear  
Wind Chill: 61°   Ceiling: Unl
Heat Index: 61°   Visibility: 10mi
Dew Point: 43°   Wind: 7mph
Humidity: 52%   Direction: 150°SSE
Pressure: 30.1"   Gusts: NA
Location:  39.47°N, 100.74°W
Report Text: KCBK 210015Z AUTO 15006KT 10SM CLR 16/06 A3010 RMK AO2
Loading
Personal Weather Stations






























Interactive Weather Map
Tropical Storm Tracking
New forecast layout! Learn more

10-Day Weather Forecast

Advertisements
Track Severe Weather on mobile